sensor_id;sensor_type;location;lat;lon;timestamp;P1;durP1;ratioP1;P2;durP2;ratioP2
1563;SDS011;775;51.958;7.976;2023-03-03T00:00:37;23.03;;;10.40;;
1563;SDS011;775;51.958;7.976;2023-03-03T00:03:06;18.90;;;8.20;;
1563;SDS011;775;51.958;7.976;2023-03-03T00:05:34;23.67;;;10.27;;
1563;SDS011;775;51.958;7.976;2023-03-03T00:08:02;23.73;;;10.20;;
1563;SDS011;775;51.958;7.976;2023-03-03T00:10:29;22.27;;;9.60;;
1563;SDS011;775;51.958;7.976;2023-03-03T00:12:56;19.53;;;8.80;;
1563;SDS011;775;51.958;7.976;2023-03-03T00:15:24;22.20;;;9.80;;
1563;SDS011;775;51.958;7.976;2023-03-03T00:17:52;19.80;;;8.20;;
1563;SDS011;775;51.958;7.976;2023-03-03T00:20:28;19.90;;;8.90;;
1563;SDS011;775;51.958;7.976;2023-03-03T00:22:55;21.00;;;9.10;;
1563;SDS011;775;51.958;7.976;2023-03-03T00:25:26;21.07;;;9.70;;
1563;SDS011;775;51.958;7.976;2023-03-03T00:27:54;23.13;;;9.30;;
1563;SDS011;775;51.958;7.976;2023-03-03T00:30:22;19.77;;;8.13;;
1563;SDS011;775;51.958;7.976;2023-03-03T00:32:50;20.00;;;8.83;;
1563;SDS011;775;51.958;7.976;2023-03-03T00:35:22;19.60;;;8.20;;
1563;SDS011;775;51.958;7.976;2023-03-03T00:37:52;19.20;;;8.33;;
1563;SDS011;775;51.958;7.976;2023-03-03T00:40:21;19.97;;;8.83;;
1563;SDS011;775;51.958;7.976;2023-03-03T00:42:50;21.63;;;9.13;;
1563;SDS011;775;51.958;7.976;2023-03-03T00:45:22;20.23;;;9.30;;
1563;SDS011;775;51.958;7.976;2023-03-03T00:47:49;18.30;;;8.00;;
1563;SDS011;775;51.958;7.976;2023-03-03T00:50:21;20.70;;;8.80;;
1563;SDS011;775;51.958;7.976;2023-03-03T00:52:54;20.53;;;8.77;;
1563;SDS011;775;51.958;7.976;2023-03-03T00:55:22;24.07;;;9.23;;
1563;SDS011;775;51.958;7.976;2023-03-03T00:57:49;20.93;;;9.17;;
1563;SDS011;775;51.958;7.976;2023-03-03T01:00:16;23.73;;;10.23;;
1563;SDS011;775;51.958;7.976;2023-03-03T01:02:43;22.23;;;9.53;;
1563;SDS011;775;51.958;7.976;2023-03-03T01:05:13;23.83;;;11.50;;
1563;SDS011;775;51.958;7.976;2023-03-03T01:07:40;21.67;;;9.83;;
1563;SDS011;775;51.958;7.976;2023-03-03T01:10:09;22.77;;;10.17;;
1563;SDS011;775;51.958;7.976;2023-03-03T01:12:36;20.37;;;8.93;;
1563;SDS011;775;51.958;7.976;2023-03-03T01:15:04;22.20;;;9.60;;
1563;SDS011;775;51.958;7.976;2023-03-03T01:17:31;24.40;;;11.43;;
1563;SDS011;775;51.958;7.976;2023-03-03T01:19:58;23.80;;;11.47;;
1563;SDS011;775;51.958;7.976;2023-03-03T01:22:25;20.03;;;9.20;;
1563;SDS011;775;51.958;7.976;2023-03-03T01:24:53;22.80;;;10.80;;
1563;SDS011;775;51.958;7.976;2023-03-03T01:27:21;20.83;;;8.97;;
1563;SDS011;775;51.958;7.976;2023-03-03T01:29:48;23.77;;;9.97;;
1563;SDS011;775;51.958;7.976;2023-03-03T01:32:15;23.50;;;10.53;;
1563;SDS011;775;51.958;7.976;2023-03-03T01:34:42;24.37;;;11.20;;
1563;SDS011;775;51.958;7.976;2023-03-03T01:37:09;24.37;;;10.57;;
1563;SDS011;775;51.958;7.976;2023-03-03T01:39:36;27.60;;;12.60;;
1563;SDS011;775;51.958;7.976;2023-03-03T01:42:04;20.57;;;9.90;;
1563;SDS011;775;51.958;7.976;2023-03-03T01:44:32;23.37;;;10.90;;
1563;SDS011;775;51.958;7.976;2023-03-03T01:47:00;27.03;;;11.33;;
1563;SDS011;775;51.958;7.976;2023-03-03T01:49:29;26.37;;;11.77;;
1563;SDS011;775;51.958;7.976;2023-03-03T01:52:00;29.90;;;12.87;;
1563;SDS011;775;51.958;7.976;2023-03-03T01:54:28;29.30;;;12.73;;
1563;SDS011;775;51.958;7.976;2023-03-03T01:56:58;29.67;;;11.30;;
1563;SDS011;775;51.958;7.976;2023-03-03T01:59:27;29.60;;;13.20;;
1563;SDS011;775;51.958;7.976;2023-03-03T02:01:58;31.13;;;13.03;;
1563;SDS011;775;51.958;7.976;2023-03-03T02:04:25;32.17;;;14.33;;
1563;SDS011;775;51.958;7.976;2023-03-03T02:06:53;29.37;;;13.50;;
1563;SDS011;775;51.958;7.976;2023-03-03T02:09:25;31.30;;;13.73;;
1563;SDS011;775;51.958;7.976;2023-03-03T02:11:54;30.80;;;12.40;;
1563;SDS011;775;51.958;7.976;2023-03-03T02:14:23;30.03;;;12.90;;
1563;SDS011;775;51.958;7.976;2023-03-03T02:16:50;29.30;;;13.30;;
1563;SDS011;775;51.958;7.976;2023-03-03T02:19:20;29.27;;;12.33;;
1563;SDS011;775;51.958;7.976;2023-03-03T02:21:48;30.57;;;13.33;;
1563;SDS011;775;51.958;7.976;2023-03-03T02:24:15;32.50;;;13.17;;
1563;SDS011;775;51.958;7.976;2023-03-03T02:26:45;34.83;;;12.63;;
1563;SDS011;775;51.958;7.976;2023-03-03T02:29:13;37.37;;;16.07;;
1563;SDS011;775;51.958;7.976;2023-03-03T02:31:40;35.03;;;14.30;;
1563;SDS011;775;51.958;7.976;2023-03-03T02:34:08;35.77;;;14.50;;
1563;SDS011;775;51.958;7.976;2023-03-03T02:36:35;36.20;;;14.67;;
1563;SDS011;775;51.958;7.976;2023-03-03T02:39:04;39.80;;;15.37;;
1563;SDS011;775;51.958;7.976;2023-03-03T02:41:33;41.30;;;15.37;;
1563;SDS011;775;51.958;7.976;2023-03-03T02:44:03;36.30;;;15.40;;
1563;SDS011;775;51.958;7.976;2023-03-03T02:46:31;33.13;;;14.03;;
1563;SDS011;775;51.958;7.976;2023-03-03T02:48:59;40.33;;;16.60;;
1563;SDS011;775;51.958;7.976;2023-03-03T02:51:27;43.87;;;17.47;;
1563;SDS011;775;51.958;7.976;2023-03-03T02:53:54;34.27;;;15.00;;
1563;SDS011;775;51.958;7.976;2023-03-03T02:56:21;43.37;;;17.20;;
1563;SDS011;775;51.958;7.976;2023-03-03T02:58:48;40.53;;;17.00;;
1563;SDS011;775;51.958;7.976;2023-03-03T03:01:17;41.97;;;15.33;;
1563;SDS011;775;51.958;7.976;2023-03-03T03:03:44;44.80;;;16.73;;
1563;SDS011;775;51.958;7.976;2023-03-03T03:06:11;39.67;;;17.03;;
1563;SDS011;775;51.958;7.976;2023-03-03T03:08:38;42.73;;;19.50;;
1563;SDS011;775;51.958;7.976;2023-03-03T03:11:05;38.53;;;16.83;;
1563;SDS011;775;51.958;7.976;2023-03-03T03:13:33;40.80;;;18.13;;
1563;SDS011;775;51.958;7.976;2023-03-03T03:16:00;39.47;;;17.93;;
1563;SDS011;775;51.958;7.976;2023-03-03T03:18:29;36.87;;;17.83;;
1563;SDS011;775;51.958;7.976;2023-03-03T03:20:56;34.30;;;16.07;;
1563;SDS011;775;51.958;7.976;2023-03-03T03:23:23;38.47;;;17.33;;
1563;SDS011;775;51.958;7.976;2023-03-03T03:25:50;32.97;;;13.90;;
1563;SDS011;775;51.958;7.976;2023-03-03T03:28:17;38.87;;;14.87;;
1563;SDS011;775;51.958;7.976;2023-03-03T03:30:44;46.40;;;14.27;;
1563;SDS011;775;51.958;7.976;2023-03-03T03:33:11;35.27;;;13.23;;
1563;SDS011;775;51.958;7.976;2023-03-03T03:35:40;40.40;;;15.70;;
1563;SDS011;775;51.958;7.976;2023-03-03T03:38:09;39.10;;;14.33;;
1563;SDS011;775;51.958;7.976;2023-03-03T03:40:36;34.57;;;14.00;;
1563;SDS011;775;51.958;7.976;2023-03-03T03:43:04;35.17;;;14.43;;
1563;SDS011;775;51.958;7.976;2023-03-03T03:45:31;36.67;;;15.10;;
1563;SDS011;775;51.958;7.976;2023-03-03T03:47:58;33.13;;;13.10;;
1563;SDS011;775;51.958;7.976;2023-03-03T03:50:25;38.27;;;14.50;;
1563;SDS011;775;51.958;7.976;2023-03-03T03:52:53;31.90;;;13.60;;
1563;SDS011;775;51.958;7.976;2023-03-03T03:55:21;37.40;;;14.53;;
1563;SDS011;775;51.958;7.976;2023-03-03T03:57:48;35.10;;;13.70;;
1563;SDS011;775;51.958;7.976;2023-03-03T04:00:15;32.53;;;12.63;;
1563;SDS011;775;51.958;7.976;2023-03-03T04:02:42;34.97;;;13.70;;
1563;SDS011;775;51.958;7.976;2023-03-03T04:05:09;31.53;;;13.90;;
1563;SDS011;775;51.958;7.976;2023-03-03T04:07:36;40.40;;;14.00;;
1563;SDS011;775;51.958;7.976;2023-03-03T04:10:05;34.23;;;13.77;;
1563;SDS011;775;51.958;7.976;2023-03-03T04:12:32;36.80;;;13.67;;
1563;SDS011;775;51.958;7.976;2023-03-03T04:15:03;35.97;;;14.40;;
1563;SDS011;775;51.958;7.976;2023-03-03T04:17:30;32.07;;;12.00;;
1563;SDS011;775;51.958;7.976;2023-03-03T04:19:57;29.97;;;12.60;;
1563;SDS011;775;51.958;7.976;2023-03-03T04:22:24;32.10;;;12.13;;
1563;SDS011;775;51.958;7.976;2023-03-03T04:24:51;32.87;;;12.87;;
1563;SDS011;775;51.958;7.976;2023-03-03T04:27:19;30.60;;;13.07;;
1563;SDS011;775;51.958;7.976;2023-03-03T04:29:47;33.97;;;13.63;;
1563;SDS011;775;51.958;7.976;2023-03-03T04:32:14;36.60;;;13.80;;
1563;SDS011;775;51.958;7.976;2023-03-03T04:34:42;31.50;;;12.17;;
1563;SDS011;775;51.958;7.976;2023-03-03T04:37:09;28.67;;;11.87;;
1563;SDS011;775;51.958;7.976;2023-03-03T04:39:37;31.57;;;12.07;;
1563;SDS011;775;51.958;7.976;2023-03-03T04:42:04;38.20;;;14.23;;
1563;SDS011;775;51.958;7.976;2023-03-03T04:44:32;34.43;;;12.77;;
1563;SDS011;775;51.958;7.976;2023-03-03T04:46:59;27.57;;;12.27;;
1563;SDS011;775;51.958;7.976;2023-03-03T04:49:26;33.73;;;13.33;;
1563;SDS011;775;51.958;7.976;2023-03-03T04:51:54;34.27;;;12.03;;
1563;SDS011;775;51.958;7.976;2023-03-03T04:54:21;37.07;;;12.40;;
1563;SDS011;775;51.958;7.976;2023-03-03T04:56:48;32.57;;;13.90;;
1563;SDS011;775;51.958;7.976;2023-03-03T04:59:15;29.47;;;12.93;;
1563;SDS011;775;51.958;7.976;2023-03-03T05:01:43;32.37;;;13.37;;
1563;SDS011;775;51.958;7.976;2023-03-03T05:04:11;33.00;;;12.90;;
1563;SDS011;775;51.958;7.976;2023-03-03T05:06:38;27.40;;;12.17;;
1563;SDS011;775;51.958;7.976;2023-03-03T05:09:05;30.93;;;11.90;;
1563;SDS011;775;51.958;7.976;2023-03-03T05:11:33;33.33;;;11.90;;
1563;SDS011;775;51.958;7.976;2023-03-03T05:14:01;29.90;;;10.90;;
1563;SDS011;775;51.958;7.976;2023-03-03T05:16:28;31.07;;;10.80;;
1563;SDS011;775;51.958;7.976;2023-03-03T05:18:56;32.93;;;11.70;;
1563;SDS011;775;51.958;7.976;2023-03-03T05:21:23;30.60;;;11.60;;
1563;SDS011;775;51.958;7.976;2023-03-03T05:23:50;25.20;;;10.30;;
1563;SDS011;775;51.958;7.976;2023-03-03T05:26:17;30.83;;;10.70;;
1563;SDS011;775;51.958;7.976;2023-03-03T05:28:44;26.33;;;10.97;;
1563;SDS011;775;51.958;7.976;2023-03-03T05:31:11;27.10;;;10.47;;
1563;SDS011;775;51.958;7.976;2023-03-03T05:33:38;29.53;;;10.53;;
1563;SDS011;775;51.958;7.976;2023-03-03T05:36:07;30.27;;;10.93;;
1563;SDS011;775;51.958;7.976;2023-03-03T05:38:34;27.33;;;11.43;;
1563;SDS011;775;51.958;7.976;2023-03-03T05:41:01;29.83;;;10.60;;
1563;SDS011;775;51.958;7.976;2023-03-03T05:43:28;30.97;;;11.70;;
1563;SDS011;775;51.958;7.976;2023-03-03T05:45:56;28.37;;;10.60;;
1563;SDS011;775;51.958;7.976;2023-03-03T05:48:23;27.00;;;10.57;;
1563;SDS011;775;51.958;7.976;2023-03-03T05:50:51;27.53;;;10.67;;
1563;SDS011;775;51.958;7.976;2023-03-03T05:53:19;30.10;;;12.67;;
1563;SDS011;775;51.958;7.976;2023-03-03T05:55:46;28.40;;;11.43;;
1563;SDS011;775;51.958;7.976;2023-03-03T05:58:13;30.80;;;12.20;;
1563;SDS011;775;51.958;7.976;2023-03-03T06:00:40;36.43;;;12.63;;
1563;SDS011;775;51.958;7.976;2023-03-03T06:03:07;32.13;;;11.80;;
1563;SDS011;775;51.958;7.976;2023-03-03T06:05:34;33.83;;;12.30;;
1563;SDS011;775;51.958;7.976;2023-03-03T06:08:02;28.90;;;11.40;;
1563;SDS011;775;51.958;7.976;2023-03-03T06:10:30;27.30;;;9.73;;
1563;SDS011;775;51.958;7.976;2023-03-03T06:12:57;29.57;;;11.53;;
1563;SDS011;775;51.958;7.976;2023-03-03T06:15:24;31.00;;;12.10;;
1563;SDS011;775;51.958;7.976;2023-03-03T06:17:52;34.43;;;13.87;;
1563;SDS011;775;51.958;7.976;2023-03-03T06:20:19;32.63;;;13.73;;
1563;SDS011;775;51.958;7.976;2023-03-03T06:22:46;35.97;;;13.47;;
1563;SDS011;775;51.958;7.976;2023-03-03T06:25:13;31.50;;;12.20;;
1563;SDS011;775;51.958;7.976;2023-03-03T06:27:41;31.47;;;13.10;;
1563;SDS011;775;51.958;7.976;2023-03-03T06:30:09;32.07;;;12.70;;
1563;SDS011;775;51.958;7.976;2023-03-03T06:32:36;36.07;;;12.13;;
1563;SDS011;775;51.958;7.976;2023-03-03T06:35:04;28.73;;;11.60;;
1563;SDS011;775;51.958;7.976;2023-03-03T06:37:31;28.90;;;11.43;;
1563;SDS011;775;51.958;7.976;2023-03-03T06:39:58;29.87;;;11.07;;
1563;SDS011;775;51.958;7.976;2023-03-03T06:42:25;27.03;;;11.30;;
1563;SDS011;775;51.958;7.976;2023-03-03T06:44:54;33.07;;;12.80;;
1563;SDS011;775;51.958;7.976;2023-03-03T06:47:21;30.90;;;11.10;;
1563;SDS011;775;51.958;7.976;2023-03-03T06:49:48;27.00;;;9.97;;
1563;SDS011;775;51.958;7.976;2023-03-03T06:52:16;28.27;;;11.20;;
1563;SDS011;775;51.958;7.976;2023-03-03T06:54:44;30.33;;;12.37;;
1563;SDS011;775;51.958;7.976;2023-03-03T06:57:15;27.87;;;11.17;;
1563;SDS011;775;51.958;7.976;2023-03-03T06:59:43;32.20;;;11.17;;
1563;SDS011;775;51.958;7.976;2023-03-03T07:02:15;36.17;;;13.10;;
1563;SDS011;775;51.958;7.976;2023-03-03T07:04:42;38.10;;;10.93;;
1563;SDS011;775;51.958;7.976;2023-03-03T07:07:13;27.03;;;10.77;;
1563;SDS011;775;51.958;7.976;2023-03-03T07:09:42;30.87;;;11.30;;
1563;SDS011;775;51.958;7.976;2023-03-03T07:12:10;32.73;;;11.53;;
1563;SDS011;775;51.958;7.976;2023-03-03T07:14:40;27.53;;;10.80;;
1563;SDS011;775;51.958;7.976;2023-03-03T07:17:09;29.90;;;9.93;;
1563;SDS011;775;51.958;7.976;2023-03-03T07:19:38;29.30;;;11.70;;
1563;SDS011;775;51.958;7.976;2023-03-03T07:22:10;32.00;;;10.80;;
1563;SDS011;775;51.958;7.976;2023-03-03T07:24:38;28.70;;;11.23;;
1563;SDS011;775;51.958;7.976;2023-03-03T07:27:08;30.10;;;11.20;;
1563;SDS011;775;51.958;7.976;2023-03-03T07:29:37;29.80;;;11.17;;
1563;SDS011;775;51.958;7.976;2023-03-03T07:32:05;34.37;;;10.87;;
1563;SDS011;775;51.958;7.976;2023-03-03T07:34:42;29.87;;;10.57;;
1563;SDS011;775;51.958;7.976;2023-03-03T07:37:11;32.97;;;11.47;;
1563;SDS011;775;51.958;7.976;2023-03-03T07:39:42;29.53;;;10.60;;
1563;SDS011;775;51.958;7.976;2023-03-03T07:42:14;29.17;;;11.07;;
1563;SDS011;775;51.958;7.976;2023-03-03T07:44:44;25.63;;;11.53;;
1563;SDS011;775;51.958;7.976;2023-03-03T07:47:17;30.20;;;11.00;;
1563;SDS011;775;51.958;7.976;2023-03-03T07:49:46;28.10;;;10.80;;
1563;SDS011;775;51.958;7.976;2023-03-03T07:52:19;29.03;;;11.47;;
1563;SDS011;775;51.958;7.976;2023-03-03T07:54:50;30.90;;;11.13;;
1563;SDS011;775;51.958;7.976;2023-03-03T07:57:18;32.30;;;11.17;;
1563;SDS011;775;51.958;7.976;2023-03-03T07:59:47;29.97;;;12.00;;
1563;SDS011;775;51.958;7.976;2023-03-03T08:05:21;26.07;;;10.63;;
1563;SDS011;775;51.958;7.976;2023-03-03T08:07:51;27.43;;;10.83;;
1563;SDS011;775;51.958;7.976;2023-03-03T08:10:27;26.67;;;9.77;;
1563;SDS011;775;51.958;7.976;2023-03-03T08:12:56;30.83;;;11.47;;
1563;SDS011;775;51.958;7.976;2023-03-03T08:15:24;24.67;;;9.90;;
1563;SDS011;775;51.958;7.976;2023-03-03T08:17:51;30.20;;;11.20;;
1563;SDS011;775;51.958;7.976;2023-03-03T08:20:37;36.60;;;12.70;;
1563;SDS011;775;51.958;7.976;2023-03-03T08:23:04;29.90;;;11.00;;
1563;SDS011;775;51.958;7.976;2023-03-03T08:25:31;29.17;;;11.60;;
1563;SDS011;775;51.958;7.976;2023-03-03T08:27:59;31.47;;;11.83;;
1563;SDS011;775;51.958;7.976;2023-03-03T08:30:26;34.23;;;12.30;;
1563;SDS011;775;51.958;7.976;2023-03-03T08:32:53;29.33;;;11.07;;
1563;SDS011;775;51.958;7.976;2023-03-03T08:35:20;32.37;;;10.93;;
1563;SDS011;775;51.958;7.976;2023-03-03T08:37:48;31.70;;;11.50;;
1563;SDS011;775;51.958;7.976;2023-03-03T08:40:15;29.23;;;12.50;;
1563;SDS011;775;51.958;7.976;2023-03-03T08:42:42;32.40;;;11.37;;
1563;SDS011;775;51.958;7.976;2023-03-03T08:45:10;30.97;;;13.10;;
1563;SDS011;775;51.958;7.976;2023-03-03T08:47:37;30.37;;;11.13;;
1563;SDS011;775;51.958;7.976;2023-03-03T08:50:04;32.17;;;12.57;;
1563;SDS011;775;51.958;7.976;2023-03-03T08:52:31;26.53;;;11.90;;
1563;SDS011;775;51.958;7.976;2023-03-03T08:55:00;30.40;;;12.23;;
1563;SDS011;775;51.958;7.976;2023-03-03T08:57:27;26.50;;;9.90;;
1563;SDS011;775;51.958;7.976;2023-03-03T08:59:54;25.30;;;9.53;;
1563;SDS011;775;51.958;7.976;2023-03-03T09:02:21;31.33;;;10.17;;
1563;SDS011;775;51.958;7.976;2023-03-03T09:04:49;26.03;;;10.20;;
1563;SDS011;775;51.958;7.976;2023-03-03T09:07:16;30.87;;;9.63;;
1563;SDS011;775;51.958;7.976;2023-03-03T09:09:43;30.23;;;10.63;;
1563;SDS011;775;51.958;7.976;2023-03-03T09:12:14;35.77;;;10.47;;
1563;SDS011;775;51.958;7.976;2023-03-03T09:14:42;25.40;;;9.50;;
1563;SDS011;775;51.958;7.976;2023-03-03T09:17:18;31.57;;;11.17;;
1563;SDS011;775;51.958;7.976;2023-03-03T09:19:49;31.00;;;10.80;;
1563;SDS011;775;51.958;7.976;2023-03-03T09:22:18;27.23;;;8.67;;
1563;SDS011;775;51.958;7.976;2023-03-03T09:24:45;28.87;;;8.93;;
1563;SDS011;775;51.958;7.976;2023-03-03T09:27:16;23.93;;;8.97;;
1563;SDS011;775;51.958;7.976;2023-03-03T09:29:44;24.23;;;8.07;;
1563;SDS011;775;51.958;7.976;2023-03-03T09:32:16;27.03;;;9.50;;
1563;SDS011;775;51.958;7.976;2023-03-03T09:34:47;32.50;;;11.00;;
1563;SDS011;775;51.958;7.976;2023-03-03T09:37:16;33.70;;;11.80;;
1563;SDS011;775;51.958;7.976;2023-03-03T09:39:45;28.40;;;12.20;;
1563;SDS011;775;51.958;7.976;2023-03-03T09:45:14;29.37;;;11.20;;
1563;SDS011;775;51.958;7.976;2023-03-03T09:47:46;25.43;;;10.13;;
1563;SDS011;775;51.958;7.976;2023-03-03T09:50:23;26.17;;;9.80;;
1563;SDS011;775;51.958;7.976;2023-03-03T09:52:53;26.37;;;9.87;;
1563;SDS011;775;51.958;7.976;2023-03-03T09:55:28;28.40;;;12.70;;
1563;SDS011;775;51.958;7.976;2023-03-03T09:58:01;29.30;;;10.90;;
1563;SDS011;775;51.958;7.976;2023-03-03T10:00:36;26.63;;;10.03;;
1563;SDS011;775;51.958;7.976;2023-03-03T10:03:11;27.27;;;9.90;;
1563;SDS011;775;51.958;7.976;2023-03-03T10:05:47;26.00;;;9.90;;
1563;SDS011;775;51.958;7.976;2023-03-03T10:08:27;24.50;;;9.10;;
1563;SDS011;775;51.958;7.976;2023-03-03T10:11:00;28.20;;;11.53;;
1563;SDS011;775;51.958;7.976;2023-03-03T10:13:31;27.33;;;10.20;;
1563;SDS011;775;51.958;7.976;2023-03-03T10:16:11;25.80;;;10.53;;
1563;SDS011;775;51.958;7.976;2023-03-03T10:18:41;27.83;;;10.20;;
1563;SDS011;775;51.958;7.976;2023-03-03T10:21:12;27.50;;;10.83;;
1563;SDS011;775;51.958;7.976;2023-03-03T10:23:47;26.63;;;10.20;;
1563;SDS011;775;51.958;7.976;2023-03-03T10:26:19;29.87;;;8.53;;
1563;SDS011;775;51.958;7.976;2023-03-03T10:29:07;29.17;;;9.73;;
1563;SDS011;775;51.958;7.976;2023-03-03T10:31:45;24.63;;;9.73;;
1563;SDS011;775;51.958;7.976;2023-03-03T10:34:18;28.77;;;9.80;;
1563;SDS011;775;51.958;7.976;2023-03-03T10:36:52;28.57;;;9.47;;
1563;SDS011;775;51.958;7.976;2023-03-03T10:42:11;28.00;;;9.50;;
1563;SDS011;775;51.958;7.976;2023-03-03T10:44:48;26.47;;;11.50;;
1563;SDS011;775;51.958;7.976;2023-03-03T10:50:05;23.33;;;8.50;;
1563;SDS011;775;51.958;7.976;2023-03-03T10:52:36;24.50;;;8.87;;
1563;SDS011;775;51.958;7.976;2023-03-03T10:57:49;24.23;;;8.80;;
1563;SDS011;775;51.958;7.976;2023-03-03T11:00:20;23.20;;;9.20;;
1563;SDS011;775;51.958;7.976;2023-03-03T11:02:55;27.33;;;11.67;;
1563;SDS011;775;51.958;7.976;2023-03-03T11:05:28;29.50;;;11.60;;
1563;SDS011;775;51.958;7.976;2023-03-03T11:08:00;28.80;;;10.63;;
1563;SDS011;775;51.958;7.976;2023-03-03T11:10:32;26.73;;;10.60;;
1563;SDS011;775;51.958;7.976;2023-03-03T11:13:06;29.60;;;10.33;;
1563;SDS011;775;51.958;7.976;2023-03-03T11:15:42;24.10;;;9.33;;
1563;SDS011;775;51.958;7.976;2023-03-03T11:18:25;27.47;;;9.67;;
1563;SDS011;775;51.958;7.976;2023-03-03T11:20:58;23.07;;;9.70;;
1563;SDS011;775;51.958;7.976;2023-03-03T11:23:42;26.00;;;9.70;;
1563;SDS011;775;51.958;7.976;2023-03-03T11:26:12;24.23;;;8.80;;
1563;SDS011;775;51.958;7.976;2023-03-03T11:28:47;26.60;;;9.97;;
1563;SDS011;775;51.958;7.976;2023-03-03T11:31:18;24.03;;;9.90;;
1563;SDS011;775;51.958;7.976;2023-03-03T11:33:51;22.30;;;8.80;;
1563;SDS011;775;51.958;7.976;2023-03-03T11:36:24;26.00;;;9.03;;
1563;SDS011;775;51.958;7.976;2023-03-03T11:38:55;26.13;;;9.80;;
1563;SDS011;775;51.958;7.976;2023-03-03T11:41:28;28.83;;;9.83;;
1563;SDS011;775;51.958;7.976;2023-03-03T11:43:56;25.37;;;10.37;;
1563;SDS011;775;51.958;7.976;2023-03-03T11:46:25;23.97;;;9.70;;
1563;SDS011;775;51.958;7.976;2023-03-03T11:48:53;26.23;;;9.30;;
1563;SDS011;775;51.958;7.976;2023-03-03T11:51:29;23.33;;;8.87;;
1563;SDS011;775;51.958;7.976;2023-03-03T11:53:58;25.20;;;9.00;;
1563;SDS011;775;51.958;7.976;2023-03-03T11:56:28;21.63;;;7.70;;
1563;SDS011;775;51.958;7.976;2023-03-03T11:58:59;26.73;;;9.57;;
1563;SDS011;775;51.958;7.976;2023-03-03T12:01:29;29.27;;;10.20;;
1563;SDS011;775;51.958;7.976;2023-03-03T12:04:00;25.70;;;9.77;;
1563;SDS011;775;51.958;7.976;2023-03-03T12:06:32;24.13;;;9.30;;
1563;SDS011;775;51.958;7.976;2023-03-03T12:09:06;23.03;;;9.53;;
1563;SDS011;775;51.958;7.976;2023-03-03T12:11:37;22.90;;;8.60;;
1563;SDS011;775;51.958;7.976;2023-03-03T12:14:08;23.30;;;9.10;;
1563;SDS011;775;51.958;7.976;2023-03-03T12:16:42;26.20;;;9.00;;
1563;SDS011;775;51.958;7.976;2023-03-03T12:19:33;20.67;;;7.90;;
1563;SDS011;775;51.958;7.976;2023-03-03T12:22:10;22.63;;;8.23;;
1563;SDS011;775;51.958;7.976;2023-03-03T12:24:43;25.87;;;9.03;;
1563;SDS011;775;51.958;7.976;2023-03-03T12:27:13;28.53;;;9.23;;
1563;SDS011;775;51.958;7.976;2023-03-03T12:29:46;22.40;;;8.10;;
1563;SDS011;775;51.958;7.976;2023-03-03T12:32:21;24.70;;;8.03;;
1563;SDS011;775;51.958;7.976;2023-03-03T12:34:53;25.10;;;8.20;;
1563;SDS011;775;51.958;7.976;2023-03-03T12:37:31;23.47;;;8.57;;
1563;SDS011;775;51.958;7.976;2023-03-03T12:40:02;24.97;;;9.20;;
1563;SDS011;775;51.958;7.976;2023-03-03T12:42:35;23.80;;;8.10;;
1563;SDS011;775;51.958;7.976;2023-03-03T12:45:21;20.80;;;7.50;;
1563;SDS011;775;51.958;7.976;2023-03-03T12:47:49;21.13;;;8.23;;
1563;SDS011;775;51.958;7.976;2023-03-03T12:50:22;21.80;;;8.40;;
1563;SDS011;775;51.958;7.976;2023-03-03T12:52:53;21.87;;;7.80;;
1563;SDS011;775;51.958;7.976;2023-03-03T12:55:29;26.83;;;8.10;;
1563;SDS011;775;51.958;7.976;2023-03-03T12:58:01;20.40;;;8.70;;
1563;SDS011;775;51.958;7.976;2023-03-03T13:00:34;22.67;;;8.43;;
1563;SDS011;775;51.958;7.976;2023-03-03T13:03:07;23.53;;;8.40;;
1563;SDS011;775;51.958;7.976;2023-03-03T13:05:39;23.77;;;10.40;;
1563;SDS011;775;51.958;7.976;2023-03-03T13:08:15;26.10;;;12.00;;
1563;SDS011;775;51.958;7.976;2023-03-03T13:10:44;37.10;;;14.00;;
1563;SDS011;775;51.958;7.976;2023-03-03T13:13:13;30.93;;;11.80;;
1563;SDS011;775;51.958;7.976;2023-03-03T13:15:44;30.23;;;12.33;;
1563;SDS011;775;51.958;7.976;2023-03-03T13:18:18;32.33;;;12.40;;
1563;SDS011;775;51.958;7.976;2023-03-03T13:20:48;34.63;;;12.10;;
1563;SDS011;775;51.958;7.976;2023-03-03T13:23:20;30.37;;;11.83;;
1563;SDS011;775;51.958;7.976;2023-03-03T13:25:52;33.17;;;10.83;;
1563;SDS011;775;51.958;7.976;2023-03-03T13:28:23;28.57;;;12.67;;
1563;SDS011;775;51.958;7.976;2023-03-03T13:30:54;31.87;;;10.87;;
1563;SDS011;775;51.958;7.976;2023-03-03T13:33:23;29.80;;;12.00;;
1563;SDS011;775;51.958;7.976;2023-03-03T13:35:52;32.27;;;10.90;;
1563;SDS011;775;51.958;7.976;2023-03-03T13:38:22;32.10;;;12.67;;
1563;SDS011;775;51.958;7.976;2023-03-03T13:40:50;31.43;;;12.20;;
1563;SDS011;775;51.958;7.976;2023-03-03T13:43:21;31.00;;;13.67;;
1563;SDS011;775;51.958;7.976;2023-03-03T13:45:53;29.40;;;11.77;;
1563;SDS011;775;51.958;7.976;2023-03-03T13:48:27;29.10;;;12.03;;
1563;SDS011;775;51.958;7.976;2023-03-03T13:50:57;31.27;;;11.63;;
1563;SDS011;775;51.958;7.976;2023-03-03T13:53:31;29.93;;;11.83;;
1563;SDS011;775;51.958;7.976;2023-03-03T13:56:02;26.20;;;11.53;;
1563;SDS011;775;51.958;7.976;2023-03-03T13:58:34;27.43;;;12.40;;
1563;SDS011;775;51.958;7.976;2023-03-03T14:01:05;26.93;;;10.43;;
1563;SDS011;775;51.958;7.976;2023-03-03T14:03:39;29.70;;;12.03;;
1563;SDS011;775;51.958;7.976;2023-03-03T14:06:13;31.80;;;12.40;;
1563;SDS011;775;51.958;7.976;2023-03-03T14:08:45;29.60;;;11.40;;
1563;SDS011;775;51.958;7.976;2023-03-03T14:11:16;27.60;;;12.37;;
1563;SDS011;775;51.958;7.976;2023-03-03T14:13:48;31.53;;;13.50;;
1563;SDS011;775;51.958;7.976;2023-03-03T14:16:20;28.53;;;11.23;;
1563;SDS011;775;51.958;7.976;2023-03-03T14:18:52;27.50;;;12.40;;
1563;SDS011;775;51.958;7.976;2023-03-03T14:21:23;28.90;;;12.50;;
1563;SDS011;775;51.958;7.976;2023-03-03T14:23:54;33.43;;;12.20;;
1563;SDS011;775;51.958;7.976;2023-03-03T14:26:25;26.23;;;11.70;;
1563;SDS011;775;51.958;7.976;2023-03-03T14:29:02;33.27;;;12.33;;
1563;SDS011;775;51.958;7.976;2023-03-03T14:31:37;32.40;;;12.73;;
1563;SDS011;775;51.958;7.976;2023-03-03T14:34:12;25.43;;;11.47;;
1563;SDS011;775;51.958;7.976;2023-03-03T14:36:41;30.07;;;13.37;;
1563;SDS011;775;51.958;7.976;2023-03-03T14:41:51;27.13;;;11.80;;
1563;SDS011;775;51.958;7.976;2023-03-03T14:44:25;28.10;;;12.10;;
1563;SDS011;775;51.958;7.976;2023-03-03T14:47:05;29.50;;;12.43;;
1563;SDS011;775;51.958;7.976;2023-03-03T14:49:38;26.90;;;11.20;;
1563;SDS011;775;51.958;7.976;2023-03-03T14:52:10;31.23;;;12.10;;
1563;SDS011;775;51.958;7.976;2023-03-03T14:54:38;36.83;;;11.90;;
1563;SDS011;775;51.958;7.976;2023-03-03T14:57:09;29.63;;;12.23;;
1563;SDS011;775;51.958;7.976;2023-03-03T14:59:38;34.70;;;12.20;;
1563;SDS011;775;51.958;7.976;2023-03-03T15:04:52;26.33;;;11.03;;
1563;SDS011;775;51.958;7.976;2023-03-03T15:07:35;32.20;;;12.57;;
1563;SDS011;775;51.958;7.976;2023-03-03T15:10:02;25.90;;;11.77;;
1563;SDS011;775;51.958;7.976;2023-03-03T15:12:34;32.93;;;12.90;;
1563;SDS011;775;51.958;7.976;2023-03-03T15:15:06;35.63;;;12.10;;
1563;SDS011;775;51.958;7.976;2023-03-03T15:17:37;25.63;;;12.03;;
1563;SDS011;775;51.958;7.976;2023-03-03T15:20:17;32.40;;;14.00;;
1563;SDS011;775;51.958;7.976;2023-03-03T15:22:49;34.40;;;12.83;;
1563;SDS011;775;51.958;7.976;2023-03-03T15:25:20;30.67;;;12.67;;
1563;SDS011;775;51.958;7.976;2023-03-03T15:27:50;37.00;;;15.40;;
1563;SDS011;775;51.958;7.976;2023-03-03T15:30:21;36.90;;;12.83;;
1563;SDS011;775;51.958;7.976;2023-03-03T15:32:51;33.03;;;14.07;;
1563;SDS011;775;51.958;7.976;2023-03-03T15:35:25;33.27;;;15.27;;
1563;SDS011;775;51.958;7.976;2023-03-03T15:37:55;28.80;;;12.23;;
1563;SDS011;775;51.958;7.976;2023-03-03T15:40:24;32.20;;;14.90;;